Terminal Aerodrome Forecast
Issued by NWS Honolulu, HI

Home | Current Version | Previous Version | Text Only | Print | Product List | Glossary On
Versions: 1 2 3 4 5 6 7 8 9 10 11 12 13 14 15 16 17 18 19 20 21 22 23 24 25 26 27 28 29
000
FTPA31 PHFO 212340
TAFHNL
TAF
PHNL 212340Z 2200/2306 05014G22KT P6SM VCSH FEW030 SCT050 BKN060
     FM220400 05012G20KT P6SM SCT025 BKN045
     FM222000 06018G28KT P6SM FEW030 SCT050
     FM230400 05012KT P6SM FEW030 SCT050=

USA.gov is the U.S. government's official web portal to all federal, state and local government web resources and services.